Brenham, Texas
Current Conditions -  °F | °C
As of 6:15 AM on Saturday 20 Dec 2014 (Local Time) from K11R Reporting Station
Overcast Overcast  
Wind Chill: 51°   Ceiling: 800
Heat Index: 51°   Visibility: 7mi
Dew Point: 49°   Wind: 7mph
Humidity: 93%   Direction: 10°N
Pressure: 30.19"   Gusts: NA
Location:  30.17°N, 96.4°W
Report Text: K11R 201215Z AUTO 01006KT 7SM BKN008 OVC018 10/09 A3019 RMK AO2 T01030092
Loading
Personal Weather Stations






























Interactive Weather Map New forecast layout! Learn more

10-Day Weather Forecast

Advertisements
Track Severe Weather on mobile